Time;durP1;ratioP1;P1;durP2;ratioP2;P2;SDS_P1;SDS_P2;PMS_P1;PMS_P2;Temp;Humidity;BMP_temperature;BMP_pressure;BME280_temperature;BME280_humidity;BME280_pressure;Samples;Min_cycle;Max_cycle;Signal;HPM_P1;HPM_P2
2023/03/08 00:01:54;;;;;;;32.80;20.37;;;;;;;;;;5081131;28;20198;-61
2023/03/08 00:04:22;;;;;;;35.43;20.70;;;;;;;;;;5081350;28;20258;-61
2023/03/08 00:06:52;;;;;;;36.53;19.93;;;;;;;;;;5081135;28;20202;-61
2023/03/08 00:09:19;;;;;;;37.37;21.20;;;;;;;;;;5080923;28;20328;-61
2023/03/08 00:11:47;;;;;;;42.73;22.87;;;;;;;;;;5080861;28;20234;-61
2023/03/08 00:14:16;;;;;;;40.50;22.10;;;;;;;;;;5081112;28;20220;-61
2023/03/08 00:16:44;;;;;;;41.17;21.93;;;;;;;;;;5081114;28;20289;-61
2023/03/08 00:19:12;;;;;;;45.47;23.00;;;;;;;;;;5081034;28;20234;-61
2023/03/08 00:21:40;;;;;;;41.10;21.80;;;;;;;;;;5081022;28;20206;-61
2023/03/08 00:24:10;;;;;;;44.90;23.47;;;;;;;;;;5080925;28;20317;-61
2023/03/08 00:26:38;;;;;;;48.13;24.00;;;;;;;;;;5080987;28;20206;-61
2023/03/08 00:29:06;;;;;;;44.93;23.43;;;;;;;;;;5080849;28;20233;-61
2023/03/08 00:31:34;;;;;;;51.83;25.27;;;;;;;;;;5080458;28;20216;-61
2023/03/08 00:34:02;;;;;;;53.53;24.83;;;;;;;;;;5080636;28;20213;-61
2023/03/08 00:36:30;;;;;;;53.30;24.93;;;;;;;;;;5080240;28;20753;-61
2023/03/08 00:38:58;;;;;;;53.80;25.00;;;;;;;;;;5080653;28;20210;-61
2023/03/08 00:41:28;;;;;;;48.10;23.47;;;;;;;;;;5080545;28;20206;-61
2023/03/08 00:43:58;;;;;;;46.33;24.67;;;;;;;;;;5080378;28;20236;-60
2023/03/08 00:46:26;;;;;;;47.33;24.30;;;;;;;;;;5080570;28;20218;-60
2023/03/08 00:48:54;;;;;;;45.80;23.73;;;;;;;;;;5080448;28;20206;-60
2023/03/08 00:51:22;;;;;;;55.43;25.53;;;;;;;;;;5080290;28;20217;-61
2023/03/08 00:53:50;;;;;;;45.47;23.03;;;;;;;;;;5080560;28;20209;-61
2023/03/08 00:56:18;;;;;;;51.37;24.83;;;;;;;;;;5080497;28;20241;-60
2023/03/08 00:58:48;;;;;;;51.03;25.17;;;;;;;;;;5080447;28;20244;-61
2023/03/08 01:01:16;;;;;;;48.27;23.13;;;;;;;;;;5079942;28;20301;-60
2023/03/08 01:03:44;;;;;;;50.10;26.47;;;;;;;;;;5080083;28;20226;-61
2023/03/08 01:06:13;;;;;;;42.73;24.07;;;;;;;;;;5079437;28;20210;-60
2023/03/08 01:08:42;;;;;;;44.50;24.93;;;;;;;;;;5079955;28;20636;-60
2023/03/08 01:11:15;;;;;;;46.87;23.70;;;;;;;;;;5066575;28;20701;-62
2023/03/08 01:13:43;;;;;;;48.73;23.27;;;;;;;;;;5080120;28;20233;-62
2023/03/08 01:16:16;;;;;;;48.90;25.33;;;;;;;;;;5080101;28;20202;-61
2023/03/08 01:18:44;;;;;;;47.67;24.23;;;;;;;;;;5080030;28;20209;-60
2023/03/08 01:21:12;;;;;;;50.33;25.33;;;;;;;;;;5079521;28;20256;-60
2023/03/08 01:23:40;;;;;;;53.70;25.23;;;;;;;;;;5079776;28;20222;-61
2023/03/08 01:26:11;;;;;;;48.87;23.40;;;;;;;;;;5079786;28;20677;-61
2023/03/08 01:28:39;;;;;;;47.63;22.83;;;;;;;;;;5079615;28;20209;-61
2023/03/08 01:31:08;;;;;;;42.60;22.07;;;;;;;;;;5079695;28;20233;-61
2023/03/08 01:33:37;;;;;;;46.87;22.67;;;;;;;;;;5079756;28;20202;-61
2023/03/08 01:36:06;;;;;;;44.10;23.07;;;;;;;;;;5079528;28;20206;-61
2023/03/08 01:38:34;;;;;;;47.67;21.97;;;;;;;;;;5079411;28;20210;-61
2023/03/08 01:41:02;;;;;;;41.87;21.33;;;;;;;;;;5079440;28;20226;-61
2023/03/08 01:43:31;;;;;;;46.07;22.70;;;;;;;;;;5079164;28;20230;-61
2023/03/08 01:46:04;;;;;;;38.50;21.00;;;;;;;;;;5079074;28;20206;-61
2023/03/08 01:48:33;;;;;;;42.67;22.37;;;;;;;;;;5079238;28;20604;-61
2023/03/08 01:51:03;;;;;;;48.17;22.13;;;;;;;;;;5078822;28;20325;-61
2023/03/08 01:53:32;;;;;;;43.63;21.60;;;;;;;;;;5079019;28;20210;-61
2023/03/08 01:56:00;;;;;;;46.20;21.37;;;;;;;;;;5078782;28;20272;-62
2023/03/08 01:58:27;;;;;;;38.80;20.40;;;;;;;;;;5079174;28;20216;-62
2023/03/08 02:00:55;;;;;;;38.57;18.33;;;;;;;;;;5078471;28;20228;-61
2023/03/08 02:03:23;;;;;;;33.43;18.40;;;;;;;;;;5078590;28;20233;-61
2023/03/08 02:05:51;;;;;;;34.80;18.17;;;;;;;;;;5078693;28;20210;-61
2023/03/08 02:08:21;;;;;;;33.93;17.60;;;;;;;;;;5078701;28;20265;-61
2023/03/08 02:10:50;;;;;;;36.47;18.37;;;;;;;;;;5078898;28;20317;-61
2023/03/08 02:13:19;;;;;;;37.07;19.43;;;;;;;;;;5079004;28;20202;-61
2023/03/08 02:15:48;;;;;;;36.50;19.17;;;;;;;;;;5078194;28;20206;-61
2023/03/08 02:18:16;;;;;;;33.77;17.40;;;;;;;;;;5078298;28;20677;-61
2023/03/08 02:20:44;;;;;;;31.27;17.40;;;;;;;;;;5078264;28;20562;-61
2023/03/08 02:23:14;;;;;;;36.63;17.67;;;;;;;;;;5078912;28;20206;-61
2023/03/08 02:25:49;;;;;;;33.27;17.30;;;;;;;;;;5078575;28;20233;-61
2023/03/08 02:28:17;;;;;;;35.07;17.90;;;;;;;;;;5078788;28;20222;-61
2023/03/08 02:30:45;;;;;;;34.50;18.17;;;;;;;;;;5078473;28;20309;-61
2023/03/08 02:33:13;;;;;;;33.23;16.93;;;;;;;;;;5078527;28;20217;-61
2023/03/08 02:35:42;;;;;;;33.57;16.70;;;;;;;;;;5078337;28;20202;-61
2023/03/08 02:38:11;;;;;;;29.17;14.93;;;;;;;;;;5078411;28;20213;-61
2023/03/08 02:40:40;;;;;;;26.70;14.10;;;;;;;;;;5078075;28;20593;-61
2023/03/08 02:43:08;;;;;;;26.13;13.43;;;;;;;;;;5078351;28;20255;-61
2023/03/08 02:45:36;;;;;;;25.33;13.97;;;;;;;;;;5078125;28;20233;-61
2023/03/08 02:48:05;;;;;;;25.80;14.83;;;;;;;;;;5078214;28;20289;-61
2023/03/08 02:50:35;;;;;;;23.83;13.70;;;;;;;;;;5077824;28;20793;-60
2023/03/08 02:53:03;;;;;;;27.40;13.97;;;;;;;;;;5078281;28;20569;-61
2023/03/08 02:55:33;;;;;;;25.10;13.30;;;;;;;;;;5078309;28;20285;-60
2023/03/08 02:58:03;;;;;;;22.63;13.67;;;;;;;;;;5077981;28;20205;-61
2023/03/08 03:00:31;;;;;;;22.27;12.40;;;;;;;;;;5078135;28;20264;-61
2023/03/08 03:02:59;;;;;;;20.07;12.80;;;;;;;;;;5078140;28;20217;-61
2023/03/08 03:05:27;;;;;;;20.30;12.90;;;;;;;;;;5077582;28;20719;-61
2023/03/08 03:07:57;;;;;;;21.47;12.53;;;;;;;;;;5077882;28;20241;-61
2023/03/08 03:10:25;;;;;;;19.70;12.53;;;;;;;;;;5077783;28;20232;-61
2023/03/08 03:12:53;;;;;;;21.23;13.30;;;;;;;;;;5078085;28;20300;-61
2023/03/08 03:15:22;;;;;;;20.00;12.07;;;;;;;;;;5077951;28;20234;-61
2023/03/08 03:17:50;;;;;;;18.27;12.13;;;;;;;;;;5077648;28;20252;-61
2023/03/08 03:20:18;;;;;;;21.27;12.23;;;;;;;;;;5077387;28;20708;-61
2023/03/08 03:22:46;;;;;;;17.03;11.50;;;;;;;;;;5077722;28;20572;-60
2023/03/08 03:25:14;;;;;;;19.13;11.40;;;;;;;;;;5077759;28;20222;-60
2023/03/08 03:27:42;;;;;;;19.07;11.50;;;;;;;;;;5077283;28;20206;-60
2023/03/08 03:30:11;;;;;;;15.83;10.43;;;;;;;;;;5077494;28;20662;-61
2023/03/08 03:32:40;;;;;;;17.90;11.23;;;;;;;;;;5077574;28;20244;-61
2023/03/08 03:35:09;;;;;;;16.97;11.37;;;;;;;;;;5077561;28;20440;-61
2023/03/08 03:37:37;;;;;;;17.03;10.53;;;;;;;;;;5077877;28;20384;-60
2023/03/08 03:40:05;;;;;;;18.77;11.03;;;;;;;;;;5077284;28;20700;-61
2023/03/08 03:42:33;;;;;;;15.60;10.43;;;;;;;;;;5077648;28;20523;-60
2023/03/08 03:45:01;;;;;;;15.33;10.73;;;;;;;;;;5077342;28;20563;-60
2023/03/08 03:47:32;;;;;;;16.63;10.17;;;;;;;;;;5077388;28;20271;-60
2023/03/08 03:50:01;;;;;;;18.07;10.27;;;;;;;;;;5077405;28;20233;-61
2023/03/08 03:52:29;;;;;;;18.87;10.70;;;;;;;;;;5078025;28;20265;-61
2023/03/08 03:54:57;;;;;;;21.57;10.67;;;;;;;;;;5077646;28;20204;-61
2023/03/08 03:57:25;;;;;;;19.13;11.50;;;;;;;;;;5077730;28;20263;-61
2023/03/08 03:59:53;;;;;;;15.87;10.63;;;;;;;;;;5077301;28;20257;-61
2023/03/08 04:02:21;;;;;;;15.07;10.60;;;;;;;;;;5077617;28;20447;-61
2023/03/08 04:04:49;;;;;;;17.60;11.33;;;;;;;;;;5077296;28;20236;-61
2023/03/08 04:07:18;;;;;;;14.63;10.10;;;;;;;;;;5077285;28;20213;-61
2023/03/08 04:09:47;;;;;;;16.23;10.80;;;;;;;;;;5077509;28;20230;-61
2023/03/08 04:12:15;;;;;;;16.97;10.80;;;;;;;;;;5077451;28;20244;-61
2023/03/08 04:14:43;;;;;;;14.93;10.43;;;;;;;;;;5077248;28;20214;-61
2023/03/08 04:17:11;;;;;;;15.77;10.10;;;;;;;;;;5077270;28;20448;-61
2023/03/08 04:19:39;;;;;;;16.57;10.37;;;;;;;;;;5077236;28;20293;-61
2023/03/08 04:22:07;;;;;;;15.10;8.53;;;;;;;;;;5077354;28;20213;-60
2023/03/08 04:24:36;;;;;;;12.13;7.97;;;;;;;;;;5077300;28;20260;-61
2023/03/08 04:27:04;;;;;;;13.60;8.23;;;;;;;;;;5077050;28;20230;-60
2023/03/08 04:29:32;;;;;;;12.67;8.47;;;;;;;;;;5077409;28;20226;-60
2023/03/08 04:32:00;;;;;;;11.20;7.50;;;;;;;;;;5077155;28;20233;-61
2023/03/08 04:34:30;;;;;;;11.63;7.90;;;;;;;;;;5077299;28;20210;-61
2023/03/08 04:36:58;;;;;;;12.67;7.37;;;;;;;;;;5077241;28;20240;-61
2023/03/08 04:39:26;;;;;;;11.50;8.23;;;;;;;;;;5076969;28;20218;-61
2023/03/08 04:41:55;;;;;;;12.70;7.57;;;;;;;;;;5080436;28;20252;-61
2023/03/08 04:44:23;;;;;;;10.47;7.80;;;;;;;;;;5080824;28;20210;-60
2023/03/08 04:46:51;;;;;;;11.83;7.00;;;;;;;;;;5080463;28;20484;-60
2023/03/08 04:49:19;;;;;;;11.87;7.67;;;;;;;;;;5080211;28;20466;-60
2023/03/08 04:51:47;;;;;;;11.87;7.87;;;;;;;;;;5080533;28;20206;-61
2023/03/08 04:54:15;;;;;;;11.27;7.30;;;;;;;;;;5080499;28;20448;-61
2023/03/08 04:56:43;;;;;;;11.17;6.83;;;;;;;;;;5080531;28;20440;-61
2023/03/08 04:59:12;;;;;;;10.37;6.83;;;;;;;;;;5080312;28;20531;-61
2023/03/08 05:01:41;;;;;;;11.93;7.47;;;;;;;;;;5080010;28;20531;-61
2023/03/08 05:04:10;;;;;;;15.33;7.17;;;;;;;;;;5080036;28;20582;-61
2023/03/08 05:06:38;;;;;;;11.17;7.43;;;;;;;;;;5080031;28;20233;-61
2023/03/08 05:09:06;;;;;;;11.47;7.00;;;;;;;;;;5079815;28;20262;-61
2023/03/08 05:11:34;;;;;;;12.60;7.70;;;;;;;;;;5080287;28;20238;-61
2023/03/08 05:14:01;;;;;;;15.40;7.60;;;;;;;;;;5080149;28;20213;-61
2023/03/08 05:16:33;;;;;;;12.37;8.43;;;;;;;;;;5080076;28;20202;-62
2023/03/08 05:19:02;;;;;;;10.60;7.37;;;;;;;;;;5077776;28;20202;-61
2023/03/08 05:21:30;;;;;;;11.73;7.17;;;;;;;;;;5079363;28;20697;-61
2023/03/08 05:23:58;;;;;;;12.90;8.37;;;;;;;;;;5079642;28;20214;-61
2023/03/08 05:26:27;;;;;;;10.00;8.17;;;;;;;;;;5079645;28;20245;-62
2023/03/08 05:28:55;;;;;;;11.23;8.13;;;;;;;;;;5079344;28;20946;-61
2023/03/08 05:31:23;;;;;;;15.20;8.03;;;;;;;;;;5079665;28;20202;-61
2023/03/08 05:33:52;;;;;;;12.67;7.57;;;;;;;;;;5079235;28;20657;-61
2023/03/08 05:36:20;;;;;;;13.40;8.10;;;;;;;;;;5079025;28;20233;-61
2023/03/08 05:38:52;;;;;;;11.43;7.27;;;;;;;;;;5079430;28;20209;-61
2023/03/08 05:41:20;;;;;;;10.57;7.40;;;;;;;;;;5077943;28;20198;-61
2023/03/08 05:43:48;;;;;;;11.70;7.07;;;;;;;;;;5079130;28;20206;-61
2023/03/08 05:46:17;;;;;;;10.70;7.27;;;;;;;;;;5078975;28;20262;-61
2023/03/08 05:48:45;;;;;;;12.97;7.50;;;;;;;;;;5079474;28;20259;-61
2023/03/08 05:51:16;;;;;;;14.07;8.53;;;;;;;;;;5078816;28;20518;-61
2023/03/08 05:53:44;;;;;;;14.17;8.13;;;;;;;;;;5079277;28;20870;-61
2023/03/08 05:56:13;;;;;;;10.47;7.20;;;;;;;;;;5079327;28;20209;-61
2023/03/08 05:58:41;;;;;;;9.90;6.87;;;;;;;;;;5079221;28;20246;-60
2023/03/08 06:01:12;;;;;;;12.40;7.40;;;;;;;;;;5078675;28;20772;-60
2023/03/08 06:03:40;;;;;;;11.87;8.20;;;;;;;;;;5079200;28;20264;-60
2023/03/08 06:06:08;;;;;;;12.13;7.27;;;;;;;;;;5078836;28;20236;-60
2023/03/08 06:08:37;;;;;;;12.10;7.37;;;;;;;;;;5077570;28;20241;-60
2023/03/08 06:11:05;;;;;;;8.90;6.67;;;;;;;;;;5099050;28;20594;-60
2023/03/08 06:13:33;;;;;;;10.40;6.60;;;;;;;;;;5093720;28;20248;-61
2023/03/08 06:16:02;;;;;;;13.30;7.47;;;;;;;;;;5086221;28;20212;-60
2023/03/08 06:18:30;;;;;;;8.63;6.20;;;;;;;;;;5099169;28;20450;-61
2023/03/08 06:20:59;;;;;;;10.97;6.77;;;;;;;;;;5082092;28;20230;-60
2023/03/08 06:23:27;;;;;;;13.30;7.23;;;;;;;;;;5080760;28;20206;-60
2023/03/08 06:25:56;;;;;;;10.33;6.80;;;;;;;;;;5083962;28;20252;-61
2023/03/08 06:28:25;;;;;;;12.50;7.33;;;;;;;;;;5078239;28;20224;-61
2023/03/08 06:30:53;;;;;;;9.60;6.70;;;;;;;;;;5078440;28;20222;-61
2023/03/08 06:33:22;;;;;;;13.40;7.23;;;;;;;;;;5078126;28;20210;-61
2023/03/08 06:35:58;;;;;;;9.67;6.77;;;;;;;;;;5078455;28;20217;-61
2023/03/08 06:38:26;;;;;;;10.73;7.27;;;;;;;;;;5078549;28;20214;-61
2023/03/08 06:41:00;;;;;;;8.67;6.80;;;;;;;;;;5077960;28;20275;-61
2023/03/08 06:43:29;;;;;;;12.60;6.97;;;;;;;;;;5077730;28;20200;-61
2023/03/08 06:45:57;;;;;;;10.70;6.93;;;;;;;;;;5075273;28;20198;-61
2023/03/08 06:48:25;;;;;;;9.97;6.87;;;;;;;;;;5081812;28;20198;-61
2023/03/08 06:50:53;;;;;;;9.53;7.00;;;;;;;;;;5082173;28;20218;-61
2023/03/08 06:53:21;;;;;;;10.30;6.17;;;;;;;;;;5075017;28;20256;-61
2023/03/08 06:55:49;;;;;;;10.20;6.20;;;;;;;;;;5077821;28;20237;-61
2023/03/08 06:58:18;;;;;;;9.17;6.73;;;;;;;;;;5084806;28;20225;-61
2023/03/08 07:00:47;;;;;;;9.53;6.17;;;;;;;;;;5083308;28;20258;-61
2023/03/08 07:03:15;;;;;;;8.57;5.97;;;;;;;;;;5084120;28;20202;-61
2023/03/08 07:05:43;;;;;;;8.60;5.80;;;;;;;;;;5077688;28;20202;-61
2023/03/08 07:08:11;;;;;;;9.00;5.67;;;;;;;;;;5077540;28;20719;-61
2023/03/08 07:10:39;;;;;;;7.30;5.73;;;;;;;;;;5077925;28;20242;-62
2023/03/08 07:13:07;;;;;;;7.77;6.20;;;;;;;;;;5078038;28;20483;-61
2023/03/08 07:15:38;;;;;;;8.03;5.77;;;;;;;;;;5077695;28;20206;-61
2023/03/08 07:18:06;;;;;;;9.47;6.17;;;;;;;;;;5077680;28;20198;-61
2023/03/08 07:20:34;;;;;;;8.90;5.87;;;;;;;;;;5073938;28;20223;-61
2023/03/08 07:23:02;;;;;;;7.67;5.97;;;;;;;;;;5071853;28;20463;-61
2023/03/08 07:25:30;;;;;;;9.90;5.90;;;;;;;;;;5075484;28;20528;-61
2023/03/08 07:27:58;;;;;;;8.80;6.37;;;;;;;;;;5077567;28;20225;-62
2023/03/08 07:30:26;;;;;;;10.73;5.87;;;;;;;;;;5077429;28;20291;-62
2023/03/08 07:32:56;;;;;;;16.30;7.40;;;;;;;;;;5077819;28;20213;-62
2023/03/08 07:35:24;;;;;;;7.00;5.17;;;;;;;;;;5077092;28;20206;-60
2023/03/08 07:37:52;;;;;;;9.73;5.90;;;;;;;;;;5081517;28;20195;-62
2023/03/08 07:40:20;;;;;;;7.63;5.47;;;;;;;;;;5082053;28;20221;-61
2023/03/08 07:42:49;;;;;;;10.17;5.57;;;;;;;;;;5080134;28;20677;-62
2023/03/08 07:45:17;;;;;;;11.07;5.90;;;;;;;;;;5085387;28;20226;-62
2023/03/08 07:47:45;;;;;;;6.97;5.17;;;;;;;;;;5085925;28;20256;-62
2023/03/08 07:50:14;;;;;;;8.30;5.50;;;;;;;;;;5096361;28;20584;-62
2023/03/08 07:52:42;;;;;;;48.80;12.10;;;;;;;;;;5097742;28;20210;-62
2023/03/08 07:55:11;;;;;;;39.33;12.53;;;;;;;;;;5096778;28;20201;-62
2023/03/08 07:57:39;;;;;;;6.80;5.60;;;;;;;;;;5081112;28;20236;-61
2023/03/08 08:00:08;;;;;;;57.87;13.97;;;;;;;;;;5081708;28;20225;-62
2023/03/08 08:02:36;;;;;;;30.90;9.17;;;;;;;;;;5082404;28;20233;-62
2023/03/08 08:05:04;;;;;;;8.87;5.37;;;;;;;;;;5086263;28;20194;-62
2023/03/08 08:07:34;;;;;;;9.27;5.37;;;;;;;;;;5084915;28;20245;-62
2023/03/08 08:10:02;;;;;;;7.10;5.13;;;;;;;;;;5085914;28;20282;-62
2023/03/08 08:12:33;;;;;;;5.93;4.77;;;;;;;;;;5084232;28;20615;-62
2023/03/08 08:15:02;;;;;;;7.23;4.43;;;;;;;;;;5090193;28;20205;-62
2023/03/08 08:17:30;;;;;;;7.33;4.40;;;;;;;;;;5084866;28;20325;-62
2023/03/08 08:19:59;;;;;;;7.83;4.80;;;;;;;;;;5080562;28;20225;-62
2023/03/08 08:22:27;;;;;;;5.50;4.67;;;;;;;;;;5087601;28;20210;-63
2023/03/08 08:24:56;;;;;;;7.63;4.43;;;;;;;;;;5101369;28;20243;-62
2023/03/08 08:27:24;;;;;;;6.17;4.33;;;;;;;;;;5100876;28;20638;-62
2023/03/08 08:29:52;;;;;;;5.03;3.90;;;;;;;;;;5088397;28;20222;-62
2023/03/08 08:32:20;;;;;;;5.67;3.80;;;;;;;;;;5081824;28;20564;-62
2023/03/08 08:34:48;;;;;;;4.37;3.90;;;;;;;;;;5081470;28;20285;-63
2023/03/08 08:37:16;;;;;;;4.03;3.23;;;;;;;;;;5084950;28;20203;-62
2023/03/08 08:39:44;;;;;;;5.13;3.60;;;;;;;;;;5088950;28;20622;-62
2023/03/08 08:42:13;;;;;;;5.07;3.33;;;;;;;;;;5088635;28;20265;-62
2023/03/08 08:44:42;;;;;;;6.10;3.87;;;;;;;;;;5086248;28;20198;-62
2023/03/08 08:47:10;;;;;;;6.07;3.80;;;;;;;;;;5088215;28;20203;-61
2023/03/08 08:49:38;;;;;;;7.40;3.93;;;;;;;;;;5087880;28;20265;-62
2023/03/08 08:52:06;;;;;;;4.37;3.23;;;;;;;;;;5089369;28;20237;-61
2023/03/08 08:54:34;;;;;;;5.20;3.50;;;;;;;;;;5088673;28;20217;-61
2023/03/08 08:57:02;;;;;;;4.93;3.67;;;;;;;;;;5081004;28;20689;-62
2023/03/08 08:59:34;;;;;;;3.93;3.13;;;;;;;;;;5081297;28;20751;-62
2023/03/08 09:02:02;;;;;;;5.17;3.53;;;;;;;;;;5080162;28;20202;-62
2023/03/08 09:04:33;;;;;;;3.40;3.10;;;;;;;;;;5073613;28;20198;-62
2023/03/08 09:07:03;;;;;;;6.23;3.33;;;;;;;;;;5065858;28;20273;-62
2023/03/08 09:09:31;;;;;;;4.20;3.17;;;;;;;;;;5077613;28;20599;-62
2023/03/08 09:11:59;;;;;;;3.57;2.57;;;;;;;;;;5077708;28;20228;-62
2023/03/08 09:14:27;;;;;;;3.47;2.70;;;;;;;;;;5077591;28;20198;-61
2023/03/08 09:16:57;;;;;;;2.93;2.63;;;;;;;;;;5092023;28;20209;-61
2023/03/08 09:19:25;;;;;;;3.00;2.70;;;;;;;;;;5097945;28;20222;-63
2023/03/08 09:21:53;;;;;;;5.00;3.40;;;;;;;;;;5082401;28;20654;-63
2023/03/08 09:24:21;;;;;;;6.07;2.97;;;;;;;;;;5079471;28;20199;-62
2023/03/08 09:26:49;;;;;;;5.37;3.20;;;;;;;;;;5081863;28;20215;-61
2023/03/08 09:29:17;;;;;;;6.23;2.87;;;;;;;;;;5099775;28;20241;-61
2023/03/08 09:31:45;;;;;;;3.77;2.73;;;;;;;;;;5099393;28;20243;-60
2023/03/08 09:34:15;;;;;;;2.80;2.40;;;;;;;;;;5099871;28;20202;-62
2023/03/08 09:36:43;;;;;;;3.43;2.77;;;;;;;;;;5093231;28;20245;-61
2023/03/08 09:39:12;;;;;;;2.63;2.23;;;;;;;;;;5083987;28;20196;-61
2023/03/08 09:41:47;;;;;;;3.20;2.43;;;;;;;;;;5087915;28;20213;-62
2023/03/08 09:44:19;;;;;;;4.00;2.50;;;;;;;;;;5087002;28;20571;-62
2023/03/08 09:46:49;;;;;;;3.57;2.37;;;;;;;;;;5089406;28;20202;-63
2023/03/08 09:49:21;;;;;;;2.57;2.23;;;;;;;;;;5088238;28;20237;-61
2023/03/08 09:51:52;;;;;;;2.70;2.50;;;;;;;;;;5085328;28;20198;-62
2023/03/08 09:54:23;;;;;;;2.77;2.23;;;;;;;;;;5083992;28;20203;-62
2023/03/08 09:56:52;;;;;;;3.47;2.53;;;;;;;;;;5085686;28;20229;-62
2023/03/08 09:59:23;;;;;;;4.93;2.77;;;;;;;;;;5092462;28;20286;-62
2023/03/08 10:01:58;;;;;;;2.23;2.03;;;;;;;;;;5099034;28;20216;-61
2023/03/08 10:04:35;;;;;;;6.93;2.80;;;;;;;;;;5098647;28;20649;-61
2023/03/08 10:07:10;;;;;;;2.47;2.27;;;;;;;;;;5098850;28;20209;-62
2023/03/08 10:09:43;;;;;;;2.50;2.23;;;;;;;;;;5098581;28;20225;-61
2023/03/08 10:12:17;;;;;;;4.87;2.20;;;;;;;;;;5083750;28;20259;-61
2023/03/08 10:14:48;;;;;;;2.37;2.10;;;;;;;;;;5078686;28;20216;-61
2023/03/08 10:17:17;;;;;;;1.80;1.67;;;;;;;;;;5078693;28;20210;-63
2023/03/08 10:19:51;;;;;;;2.47;1.90;;;;;;;;;;5078454;28;20258;-62
2023/03/08 10:22:23;;;;;;;3.37;1.70;;;;;;;;;;5078426;28;20273;-62
2023/03/08 10:24:53;;;;;;;1.60;1.50;;;;;;;;;;5078437;28;20657;-61
2023/03/08 10:27:23;;;;;;;2.03;1.60;;;;;;;;;;5078645;28;20206;-60
2023/03/08 10:29:52;;;;;;;1.93;1.73;;;;;;;;;;5065045;28;20574;-62
2023/03/08 10:32:20;;;;;;;1.53;1.40;;;;;;;;;;5078553;28;20229;-63
2023/03/08 10:34:49;;;;;;;1.40;1.30;;;;;;;;;;5078081;28;20202;-63
2023/03/08 10:37:20;;;;;;;1.93;1.57;;;;;;;;;;5077502;28;20214;-61
2023/03/08 10:39:51;;;;;;;2.27;1.50;;;;;;;;;;5078042;28;20222;-61
2023/03/08 10:42:21;;;;;;;3.87;1.50;;;;;;;;;;5078596;28;20221;-62
2023/03/08 10:44:54;;;;;;;2.03;1.77;;;;;;;;;;5078409;28;20236;-61
2023/03/08 10:47:23;;;;;;;3.40;1.67;;;;;;;;;;5071582;28;20240;-61
2023/03/08 10:50:04;;;;;;;2.33;1.30;;;;;;;;;;5076861;28;20240;-63
2023/03/08 10:52:32;;;;;;;3.33;1.70;;;;;;;;;;5077940;28;20202;-61
2023/03/08 10:55:00;;;;;;;2.30;1.40;;;;;;;;;;5075902;28;20198;-62
2023/03/08 10:57:29;;;;;;;1.60;1.43;;;;;;;;;;5079801;28;20234;-61
2023/03/08 10:59:59;;;;;;;1.30;1.20;;;;;;;;;;5098243;28;20222;-61
2023/03/08 11:02:27;;;;;;;1.73;1.40;;;;;;;;;;5084212;28;20206;-63
2023/03/08 11:04:56;;;;;;;1.60;1.50;;;;;;;;;;5077810;28;20293;-62
2023/03/08 11:07:27;;;;;;;1.63;1.53;;;;;;;;;;5079246;28;20217;-62
2023/03/08 11:10:14;;;;;;;3.40;1.87;;;;;;;;;;5077271;28;20252;-62
2023/03/08 11:12:42;;;;;;;2.13;1.50;;;;;;;;;;5079847;28;20209;-63
2023/03/08 11:15:14;;;;;;;2.13;1.40;;;;;;;;;;5078047;28;20313;-62
2023/03/08 11:17:46;;;;;;;4.83;1.97;;;;;;;;;;5077091;28;20688;-62
2023/03/08 11:20:18;;;;;;;2.80;1.50;;;;;;;;;;5074673;28;20257;-62
2023/03/08 11:22:55;;;;;;;3.23;1.63;;;;;;;;;;5077525;28;20226;-62
2023/03/08 11:25:36;;;;;;;1.67;1.57;;;;;;;;;;5082803;28;20201;-62
2023/03/08 11:28:11;;;;;;;3.23;1.60;;;;;;;;;;5073103;28;20238;-63
2023/03/08 11:30:46;;;;;;;1.77;1.60;;;;;;;;;;5077109;28;20225;-62
2023/03/08 11:33:29;;;;;;;2.93;1.50;;;;;;;;;;5064968;28;20209;-62
2023/03/08 11:36:01;;;;;;;3.63;1.50;;;;;;;;;;5065003;28;20550;-62
2023/03/08 11:38:31;;;;;;;2.40;1.50;;;;;;;;;;5077663;28;20209;-62
2023/03/08 11:41:04;;;;;;;1.93;1.77;;;;;;;;;;5077419;28;20222;-62
2023/03/08 11:43:39;;;;;;;2.00;1.43;;;;;;;;;;5077450;28;20580;-62
2023/03/08 11:46:12;;;;;;;1.40;1.30;;;;;;;;;;5077591;28;20213;-62
2023/03/08 11:48:51;;;;;;;2.33;1.63;;;;;;;;;;5078283;28;20206;-62
2023/03/08 11:51:22;;;;;;;3.73;1.83;;;;;;;;;;5081197;28;20743;-62
2023/03/08 11:53:55;;;;;;;2.00;1.50;;;;;;;;;;5081445;28;20708;-62
2023/03/08 11:56:33;;;;;;;1.60;1.50;;;;;;;;;;5081329;28;20209;-62
2023/03/08 11:59:03;;;;;;;4.77;1.60;;;;;;;;;;5076728;28;20209;-62
2023/03/08 12:01:33;;;;;;;2.43;1.93;;;;;;;;;;5080786;28;20233;-63
2023/03/08 12:04:06;;;;;;;2.73;1.30;;;;;;;;;;5079267;28;20661;-63
2023/03/08 12:06:37;;;;;;;2.87;1.60;;;;;;;;;;5081037;28;20201;-63
2023/03/08 12:09:08;;;;;;;2.30;1.60;;;;;;;;;;5080438;28;20287;-63
2023/03/08 12:11:40;;;;;;;1.60;1.37;;;;;;;;;;5079974;28;20213;-63
2023/03/08 12:14:15;;;;;;;2.23;1.60;;;;;;;;;;5080916;28;20292;-63
2023/03/08 12:16:47;;;;;;;4.73;1.40;;;;;;;;;;5082235;28;20288;-63
2023/03/08 12:19:19;;;;;;;1.40;1.30;;;;;;;;;;5067826;28;20222;-63
2023/03/08 12:21:49;;;;;;;3.20;1.70;;;;;;;;;;5080884;28;20202;-63
2023/03/08 12:24:24;;;;;;;1.77;1.30;;;;;;;;;;5081006;28;20263;-63
2023/03/08 12:26:56;;;;;;;2.10;1.40;;;;;;;;;;5080857;28;20217;-62
2023/03/08 12:29:26;;;;;;;4.07;1.50;;;;;;;;;;5072094;28;20233;-64
2023/03/08 12:31:54;;;;;;;1.73;1.50;;;;;;;;;;5080360;28;20209;-63
2023/03/08 12:34:26;;;;;;;3.33;1.33;;;;;;;;;;5080363;28;20217;-63
2023/03/08 12:36:54;;;;;;;2.80;1.23;;;;;;;;;;5080425;28;20206;-63
2023/03/08 12:39:29;;;;;;;1.60;1.20;;;;;;;;;;5080544;28;20218;-63
2023/03/08 12:42:01;;;;;;;2.03;1.30;;;;;;;;;;5067732;28;20259;-63
2023/03/08 12:44:30;;;;;;;1.23;1.13;;;;;;;;;;5078308;28;20206;-63
2023/03/08 12:47:00;;;;;;;1.50;1.40;;;;;;;;;;5080170;28;20657;-63
2023/03/08 12:49:32;;;;;;;1.53;1.40;;;;;;;;;;5080231;28;20270;-63
2023/03/08 12:52:03;;;;;;;2.40;1.33;;;;;;;;;;5080616;28;20206;-63
2023/03/08 12:54:33;;;;;;;1.93;1.70;;;;;;;;;;5080547;28;20212;-63
2023/03/08 12:57:02;;;;;;;2.77;1.20;;;;;;;;;;5073442;28;20230;-63
2023/03/08 12:59:35;;;;;;;1.83;1.67;;;;;;;;;;5078460;28;20305;-63
2023/03/08 13:02:21;;;;;;;1.80;1.43;;;;;;;;;;5071756;28;20203;-62
2023/03/08 13:04:50;;;;;;;1.47;1.37;;;;;;;;;;5068428;28;20209;-63
2023/03/08 13:07:24;;;;;;;1.33;1.23;;;;;;;;;;5079808;28;20654;-63
2023/03/08 13:09:59;;;;;;;4.37;1.77;;;;;;;;;;5080242;28;20279;-63
2023/03/08 13:12:32;;;;;;;4.13;1.50;;;;;;;;;;5080345;28;20213;-63
2023/03/08 13:15:16;;;;;;;2.33;1.50;;;;;;;;;;5080068;28;20240;-63
2023/03/08 13:17:48;;;;;;;1.20;1.17;;;;;;;;;;5078271;28;20206;-63
2023/03/08 13:20:18;;;;;;;1.40;1.30;;;;;;;;;;5076802;28;20226;-63
2023/03/08 13:22:50;;;;;;;4.07;2.17;;;;;;;;;;5080026;28;20206;-63
2023/03/08 13:25:23;;;;;;;2.03;1.60;;;;;;;;;;5080120;28;20228;-63
2023/03/08 13:27:54;;;;;;;5.17;1.40;;;;;;;;;;5079968;28;20603;-63
2023/03/08 13:30:23;;;;;;;3.87;1.50;;;;;;;;;;5079672;28;20784;-63
2023/03/08 13:32:52;;;;;;;3.97;1.50;;;;;;;;;;5079869;28;20221;-63
2023/03/08 13:35:23;;;;;;;1.50;1.20;;;;;;;;;;5077767;28;20210;-63
2023/03/08 13:37:52;;;;;;;3.53;1.73;;;;;;;;;;5072536;28;20207;-64
2023/03/08 13:40:21;;;;;;;1.47;1.13;;;;;;;;;;5079627;28;20217;-63
2023/03/08 13:42:57;;;;;;;11.90;2.30;;;;;;;;;;5079398;28;20210;-64
2023/03/08 13:45:26;;;;;;;7.47;1.70;;;;;;;;;;5079593;28;20260;-62
2023/03/08 13:47:54;;;;;;;7.77;2.60;;;;;;;;;;5078938;28;20210;-63
2023/03/08 13:50:29;;;;;;;3.90;1.67;;;;;;;;;;5079098;28;20265;-62
2023/03/08 13:52:58;;;;;;;2.10;1.50;;;;;;;;;;5076195;28;20202;-63
2023/03/08 13:55:29;;;;;;;1.73;1.63;;;;;;;;;;5079132;28;20245;-63
2023/03/08 13:57:59;;;;;;;1.90;1.80;;;;;;;;;;5069620;28;20202;-62
2023/03/08 14:00:28;;;;;;;1.60;1.23;;;;;;;;;;5079119;28;20256;-63
2023/03/08 14:02:57;;;;;;;4.30;1.73;;;;;;;;;;5078627;28;20210;-63
2023/03/08 14:05:27;;;;;;;4.20;1.47;;;;;;;;;;5078634;28;20203;-63
2023/03/08 14:07:59;;;;;;;5.00;1.80;;;;;;;;;;5078792;28;20238;-62
2023/03/08 14:10:30;;;;;;;2.03;1.83;;;;;;;;;;5068756;28;20587;-63
2023/03/08 14:13:00;;;;;;;2.83;1.67;;;;;;;;;;5078712;28;20206;-63
2023/03/08 14:15:29;;;;;;;1.50;1.27;;;;;;;;;;5078905;28;20289;-63
2023/03/08 14:17:59;;;;;;;21.03;3.13;;;;;;;;;;5078795;28;20293;-62
2023/03/08 14:20:27;;;;;;;18.67;3.63;;;;;;;;;;5094609;28;20224;-62
2023/03/08 14:22:55;;;;;;;5.07;2.20;;;;;;;;;;5098927;28;20219;-62
2023/03/08 14:25:25;;;;;;;2.20;1.73;;;;;;;;;;5098852;28;20209;-63
2023/03/08 14:27:53;;;;;;;4.20;2.00;;;;;;;;;;5079826;28;20206;-63
2023/03/08 14:30:24;;;;;;;3.27;2.00;;;;;;;;;;5078477;28;20356;-63
2023/03/08 14:32:56;;;;;;;7.33;2.40;;;;;;;;;;5078353;28;20264;-63
2023/03/08 14:35:25;;;;;;;11.83;3.40;;;;;;;;;;5077964;28;20209;-63
2023/03/08 14:37:55;;;;;;;21.97;4.27;;;;;;;;;;5078256;28;20205;-63
2023/03/08 14:40:25;;;;;;;18.57;5.13;;;;;;;;;;5078149;28;20252;-62
2023/03/08 14:42:54;;;;;;;2.23;2.00;;;;;;;;;;5078446;28;20210;-62
2023/03/08 14:45:25;;;;;;;2.63;2.43;;;;;;;;;;5067775;28;20618;-62
2023/03/08 14:47:56;;;;;;;3.80;2.27;;;;;;;;;;5079275;28;20264;-62